sensor_id;sensor_type;location;lat;lon;timestamp;P1;durP1;ratioP1;P2;durP2;ratioP2
41323;SDS011;27073;51.128;4.220;2022-12-07T00:01:32;13.20;;;10.50;;
41323;SDS011;27073;51.128;4.220;2022-12-07T00:04:00;15.45;;;10.95;;
41323;SDS011;27073;51.128;4.220;2022-12-07T00:06:39;16.70;;;11.82;;
41323;SDS011;27073;51.128;4.220;2022-12-07T00:09:18;14.77;;;11.35;;
41323;SDS011;27073;51.128;4.220;2022-12-07T00:11:48;14.75;;;11.40;;
41323;SDS011;27073;51.128;4.220;2022-12-07T00:14:18;17.17;;;12.20;;
41323;SDS011;27073;51.128;4.220;2022-12-07T00:16:46;19.60;;;12.70;;
41323;SDS011;27073;51.128;4.220;2022-12-07T00:22:43;17.80;;;12.02;;
41323;SDS011;27073;51.128;4.220;2022-12-07T00:25:10;15.35;;;12.18;;
41323;SDS011;27073;51.128;4.220;2022-12-07T00:27:36;17.08;;;11.98;;
41323;SDS011;27073;51.128;4.220;2022-12-07T00:30:02;22.92;;;12.70;;
41323;SDS011;27073;51.128;4.220;2022-12-07T00:32:28;15.43;;;11.63;;
41323;SDS011;27073;51.128;4.220;2022-12-07T00:34:53;17.15;;;13.45;;
41323;SDS011;27073;51.128;4.220;2022-12-07T00:37:19;14.95;;;12.13;;
41323;SDS011;27073;51.128;4.220;2022-12-07T00:39:45;15.43;;;13.05;;
41323;SDS011;27073;51.128;4.220;2022-12-07T00:42:13;18.38;;;12.73;;
41323;SDS011;27073;51.128;4.220;2022-12-07T00:44:39;19.55;;;13.85;;
41323;SDS011;27073;51.128;4.220;2022-12-07T00:47:07;17.92;;;12.95;;
41323;SDS011;27073;51.128;4.220;2022-12-07T00:49:34;17.38;;;12.88;;
41323;SDS011;27073;51.128;4.220;2022-12-07T00:52:05;16.20;;;12.88;;
41323;SDS011;27073;51.128;4.220;2022-12-07T00:54:36;17.50;;;13.63;;
41323;SDS011;27073;51.128;4.220;2022-12-07T00:57:05;18.65;;;12.82;;
41323;SDS011;27073;51.128;4.220;2022-12-07T00:59:34;14.45;;;12.38;;
41323;SDS011;27073;51.128;4.220;2022-12-07T01:02:02;16.35;;;12.07;;
41323;SDS011;27073;51.128;4.220;2022-12-07T01:04:28;18.48;;;11.52;;
41323;SDS011;27073;51.128;4.220;2022-12-07T01:06:54;14.73;;;10.38;;
41323;SDS011;27073;51.128;4.220;2022-12-07T01:09:22;14.20;;;10.45;;
41323;SDS011;27073;51.128;4.220;2022-12-07T01:11:49;21.08;;;11.88;;
41323;SDS011;27073;51.128;4.220;2022-12-07T01:14:18;15.82;;;11.07;;
41323;SDS011;27073;51.128;4.220;2022-12-07T01:16:43;12.90;;;10.75;;
41323;SDS011;27073;51.128;4.220;2022-12-07T01:19:10;13.60;;;10.85;;
41323;SDS011;27073;51.128;4.220;2022-12-07T01:21:38;14.98;;;10.63;;
41323;SDS011;27073;51.128;4.220;2022-12-07T01:24:06;12.77;;;9.65;;
41323;SDS011;27073;51.128;4.220;2022-12-07T01:26:34;13.85;;;10.20;;
41323;SDS011;27073;51.128;4.220;2022-12-07T01:29:00;18.13;;;9.93;;
41323;SDS011;27073;51.128;4.220;2022-12-07T01:31:26;14.85;;;9.80;;
41323;SDS011;27073;51.128;4.220;2022-12-07T01:33:54;12.98;;;10.05;;
41323;SDS011;27073;51.128;4.220;2022-12-07T01:38:56;13.82;;;9.18;;
41323;SDS011;27073;51.128;4.220;2022-12-07T01:41:25;16.02;;;9.25;;
41323;SDS011;27073;51.128;4.220;2022-12-07T01:46:54;14.82;;;7.72;;
41323;SDS011;27073;51.128;4.220;2022-12-07T01:57:32;11.10;;;7.38;;
41323;SDS011;27073;51.128;4.220;2022-12-07T01:59:59;14.23;;;7.43;;
41323;SDS011;27073;51.128;4.220;2022-12-07T02:02:55;12.00;;;7.05;;
41323;SDS011;27073;51.128;4.220;2022-12-07T02:08:23;12.43;;;8.05;;
41323;SDS011;27073;51.128;4.220;2022-12-07T02:10:55;13.40;;;7.50;;
41323;SDS011;27073;51.128;4.220;2022-12-07T02:13:28;14.00;;;8.07;;
41323;SDS011;27073;51.128;4.220;2022-12-07T02:21:13;14.93;;;7.80;;
41323;SDS011;27073;51.128;4.220;2022-12-07T02:26:35;17.30;;;7.95;;
41323;SDS011;27073;51.128;4.220;2022-12-07T02:29:26;11.32;;;7.70;;
41323;SDS011;27073;51.128;4.220;2022-12-07T02:37:03;14.20;;;8.30;;
41323;SDS011;27073;51.128;4.220;2022-12-07T02:39:42;15.35;;;8.73;;
41323;SDS011;27073;51.128;4.220;2022-12-07T02:42:17;15.07;;;7.70;;
41323;SDS011;27073;51.128;4.220;2022-12-07T02:44:49;14.13;;;8.80;;
41323;SDS011;27073;51.128;4.220;2022-12-07T02:47:16;14.60;;;8.20;;
41323;SDS011;27073;51.128;4.220;2022-12-07T02:49:45;14.18;;;8.60;;
41323;SDS011;27073;51.128;4.220;2022-12-07T03:02:17;11.90;;;7.78;;
41323;SDS011;27073;51.128;4.220;2022-12-07T03:07:57;16.42;;;7.93;;
41323;SDS011;27073;51.128;4.220;2022-12-07T03:16:18;12.65;;;8.77;;
41323;SDS011;27073;51.128;4.220;2022-12-07T03:22:18;13.57;;;8.27;;
41323;SDS011;27073;51.128;4.220;2022-12-07T03:24:57;18.77;;;9.40;;
41323;SDS011;27073;51.128;4.220;2022-12-07T03:27:26;11.98;;;8.80;;
41323;SDS011;27073;51.128;4.220;2022-12-07T03:30:06;13.30;;;8.93;;
41323;SDS011;27073;51.128;4.220;2022-12-07T03:32:37;14.68;;;9.52;;
41323;SDS011;27073;51.128;4.220;2022-12-07T03:35:26;15.80;;;10.07;;
41323;SDS011;27073;51.128;4.220;2022-12-07T03:37:59;13.23;;;10.02;;
41323;SDS011;27073;51.128;4.220;2022-12-07T03:40:37;17.60;;;10.05;;
41323;SDS011;27073;51.128;4.220;2022-12-07T03:43:10;15.18;;;10.40;;
41323;SDS011;27073;51.128;4.220;2022-12-07T03:45:38;18.30;;;9.93;;
41323;SDS011;27073;51.128;4.220;2022-12-07T03:50:47;20.65;;;10.18;;
41323;SDS011;27073;51.128;4.220;2022-12-07T03:54:13;14.85;;;9.30;;
41323;SDS011;27073;51.128;4.220;2022-12-07T03:56:22;16.98;;;10.25;;
41323;SDS011;27073;51.128;4.220;2022-12-07T03:58:49;15.90;;;10.27;;
41323;SDS011;27073;51.128;4.220;2022-12-07T04:01:17;19.10;;;10.45;;
41323;SDS011;27073;51.128;4.220;2022-12-07T04:03:43;16.48;;;9.68;;
41323;SDS011;27073;51.128;4.220;2022-12-07T04:06:09;14.40;;;9.88;;
41323;SDS011;27073;51.128;4.220;2022-12-07T04:08:35;15.80;;;9.85;;
41323;SDS011;27073;51.128;4.220;2022-12-07T04:11:01;16.92;;;8.68;;
41323;SDS011;27073;51.128;4.220;2022-12-07T04:13:27;15.70;;;8.45;;
41323;SDS011;27073;51.128;4.220;2022-12-07T04:15:53;13.27;;;9.02;;
41323;SDS011;27073;51.128;4.220;2022-12-07T04:18:19;13.60;;;8.35;;
41323;SDS011;27073;51.128;4.220;2022-12-07T04:20:45;13.93;;;8.77;;
41323;SDS011;27073;51.128;4.220;2022-12-07T04:23:11;14.18;;;7.75;;
41323;SDS011;27073;51.128;4.220;2022-12-07T04:25:37;14.32;;;8.18;;
41323;SDS011;27073;51.128;4.220;2022-12-07T04:28:03;18.33;;;8.40;;
41323;SDS011;27073;51.128;4.220;2022-12-07T04:30:29;15.80;;;8.35;;
41323;SDS011;27073;51.128;4.220;2022-12-07T04:32:55;12.40;;;8.00;;
41323;SDS011;27073;51.128;4.220;2022-12-07T04:35:20;14.75;;;9.05;;
41323;SDS011;27073;51.128;4.220;2022-12-07T04:37:46;14.80;;;7.25;;
41323;SDS011;27073;51.128;4.220;2022-12-07T04:40:12;10.77;;;8.32;;
41323;SDS011;27073;51.128;4.220;2022-12-07T04:42:40;15.25;;;8.32;;
41323;SDS011;27073;51.128;4.220;2022-12-07T04:45:06;15.68;;;7.70;;
41323;SDS011;27073;51.128;4.220;2022-12-07T04:47:33;12.15;;;7.75;;
41323;SDS011;27073;51.128;4.220;2022-12-07T04:49:58;15.15;;;6.78;;
41323;SDS011;27073;51.128;4.220;2022-12-07T04:52:24;10.98;;;6.57;;
41323;SDS011;27073;51.128;4.220;2022-12-07T04:54:50;11.63;;;7.10;;
41323;SDS011;27073;51.128;4.220;2022-12-07T04:57:15;17.40;;;7.13;;
41323;SDS011;27073;51.128;4.220;2022-12-07T04:59:42;15.32;;;7.25;;
41323;SDS011;27073;51.128;4.220;2022-12-07T05:02:08;9.95;;;7.05;;
41323;SDS011;27073;51.128;4.220;2022-12-07T05:04:35;12.25;;;6.93;;
41323;SDS011;27073;51.128;4.220;2022-12-07T05:07:00;13.68;;;7.95;;
41323;SDS011;27073;51.128;4.220;2022-12-07T05:09:27;11.90;;;7.18;;
41323;SDS011;27073;51.128;4.220;2022-12-07T05:11:53;14.73;;;7.57;;
41323;SDS011;27073;51.128;4.220;2022-12-07T05:14:19;12.10;;;6.93;;
41323;SDS011;27073;51.128;4.220;2022-12-07T05:16:46;10.23;;;6.65;;
41323;SDS011;27073;51.128;4.220;2022-12-07T05:19:15;13.77;;;6.90;;
41323;SDS011;27073;51.128;4.220;2022-12-07T05:21:42;15.23;;;6.30;;
41323;SDS011;27073;51.128;4.220;2022-12-07T05:24:09;17.83;;;6.50;;
41323;SDS011;27073;51.128;4.220;2022-12-07T05:26:36;14.93;;;6.93;;
41323;SDS011;27073;51.128;4.220;2022-12-07T05:29:02;11.38;;;6.75;;
41323;SDS011;27073;51.128;4.220;2022-12-07T05:31:28;12.68;;;6.93;;
41323;SDS011;27073;51.128;4.220;2022-12-07T05:33:55;14.65;;;6.55;;
41323;SDS011;27073;51.128;4.220;2022-12-07T05:36:21;10.70;;;6.65;;
41323;SDS011;27073;51.128;4.220;2022-12-07T05:38:47;11.48;;;7.57;;
41323;SDS011;27073;51.128;4.220;2022-12-07T05:41:14;14.80;;;7.13;;
41323;SDS011;27073;51.128;4.220;2022-12-07T05:44:00;10.85;;;6.60;;
41323;SDS011;27073;51.128;4.220;2022-12-07T05:46:26;10.18;;;7.07;;
41323;SDS011;27073;51.128;4.220;2022-12-07T05:48:52;10.13;;;6.43;;
41323;SDS011;27073;51.128;4.220;2022-12-07T05:51:17;11.70;;;7.10;;
41323;SDS011;27073;51.128;4.220;2022-12-07T05:53:44;12.68;;;7.35;;
41323;SDS011;27073;51.128;4.220;2022-12-07T05:56:10;15.63;;;6.95;;
41323;SDS011;27073;51.128;4.220;2022-12-07T05:58:35;16.13;;;7.15;;
41323;SDS011;27073;51.128;4.220;2022-12-07T06:01:20;12.05;;;6.68;;
41323;SDS011;27073;51.128;4.220;2022-12-07T06:03:45;8.73;;;6.25;;
41323;SDS011;27073;51.128;4.220;2022-12-07T06:06:12;11.13;;;7.40;;
41323;SDS011;27073;51.128;4.220;2022-12-07T06:08:41;12.13;;;7.35;;
41323;SDS011;27073;51.128;4.220;2022-12-07T06:13:54;15.15;;;7.22;;
41323;SDS011;27073;51.128;4.220;2022-12-07T06:16:20;12.95;;;6.95;;
41323;SDS011;27073;51.128;4.220;2022-12-07T06:18:47;16.55;;;6.65;;
41323;SDS011;27073;51.128;4.220;2022-12-07T06:21:12;12.02;;;6.35;;
41323;SDS011;27073;51.128;4.220;2022-12-07T06:26:09;11.60;;;7.75;;
41323;SDS011;27073;51.128;4.220;2022-12-07T06:28:38;13.82;;;7.60;;
41323;SDS011;27073;51.128;4.220;2022-12-07T06:31:08;12.68;;;7.28;;
41323;SDS011;27073;51.128;4.220;2022-12-07T06:33:35;10.38;;;6.65;;
41323;SDS011;27073;51.128;4.220;2022-12-07T06:36:04;12.40;;;7.53;;
41323;SDS011;27073;51.128;4.220;2022-12-07T06:38:36;12.43;;;6.65;;
41323;SDS011;27073;51.128;4.220;2022-12-07T06:41:02;11.90;;;7.35;;
41323;SDS011;27073;51.128;4.220;2022-12-07T06:43:30;14.70;;;7.45;;
41323;SDS011;27073;51.128;4.220;2022-12-07T06:45:56;15.50;;;7.35;;
41323;SDS011;27073;51.128;4.220;2022-12-07T06:48:22;11.85;;;8.05;;
41323;SDS011;27073;51.128;4.220;2022-12-07T06:50:48;9.80;;;6.63;;
41323;SDS011;27073;51.128;4.220;2022-12-07T06:53:14;14.10;;;7.13;;
41323;SDS011;27073;51.128;4.220;2022-12-07T06:55:40;13.55;;;6.60;;
41323;SDS011;27073;51.128;4.220;2022-12-07T06:58:06;12.45;;;7.15;;
41323;SDS011;27073;51.128;4.220;2022-12-07T07:00:32;13.13;;;7.03;;
41323;SDS011;27073;51.128;4.220;2022-12-07T07:02:59;9.43;;;5.78;;
41323;SDS011;27073;51.128;4.220;2022-12-07T07:05:25;11.77;;;5.95;;
41323;SDS011;27073;51.128;4.220;2022-12-07T07:07:51;12.15;;;5.82;;
41323;SDS011;27073;51.128;4.220;2022-12-07T07:10:17;9.70;;;5.97;;
41323;SDS011;27073;51.128;4.220;2022-12-07T07:12:42;9.25;;;5.57;;
41323;SDS011;27073;51.128;4.220;2022-12-07T07:15:09;11.65;;;6.80;;
41323;SDS011;27073;51.128;4.220;2022-12-07T07:17:36;10.60;;;6.28;;
41323;SDS011;27073;51.128;4.220;2022-12-07T07:20:02;10.48;;;6.35;;
41323;SDS011;27073;51.128;4.220;2022-12-07T07:22:29;12.45;;;6.10;;
41323;SDS011;27073;51.128;4.220;2022-12-07T07:24:55;14.85;;;6.22;;
41323;SDS011;27073;51.128;4.220;2022-12-07T07:27:24;9.63;;;6.25;;
41323;SDS011;27073;51.128;4.220;2022-12-07T07:32:24;12.00;;;7.43;;
41323;SDS011;27073;51.128;4.220;2022-12-07T07:40:24;11.43;;;6.38;;
41323;SDS011;27073;51.128;4.220;2022-12-07T07:42:51;11.23;;;7.05;;
41323;SDS011;27073;51.128;4.220;2022-12-07T07:45:18;16.60;;;7.30;;
41323;SDS011;27073;51.128;4.220;2022-12-07T07:47:45;15.18;;;7.03;;
41323;SDS011;27073;51.128;4.220;2022-12-07T07:50:11;16.88;;;8.10;;
41323;SDS011;27073;51.128;4.220;2022-12-07T07:52:38;19.35;;;9.23;;
41323;SDS011;27073;51.128;4.220;2022-12-07T07:55:04;15.27;;;8.75;;
41323;SDS011;27073;51.128;4.220;2022-12-07T07:57:31;16.08;;;7.32;;
41323;SDS011;27073;51.128;4.220;2022-12-07T07:59:56;17.38;;;8.23;;
41323;SDS011;27073;51.128;4.220;2022-12-07T08:02:22;14.68;;;7.50;;
41323;SDS011;27073;51.128;4.220;2022-12-07T08:04:49;14.60;;;7.80;;
41323;SDS011;27073;51.128;4.220;2022-12-07T08:07:15;21.17;;;9.63;;
41323;SDS011;27073;51.128;4.220;2022-12-07T08:09:41;16.58;;;8.90;;
41323;SDS011;27073;51.128;4.220;2022-12-07T08:12:08;22.73;;;9.45;;
41323;SDS011;27073;51.128;4.220;2022-12-07T08:14:34;16.70;;;8.00;;
41323;SDS011;27073;51.128;4.220;2022-12-07T08:17:03;16.50;;;8.38;;
41323;SDS011;27073;51.128;4.220;2022-12-07T08:19:29;20.80;;;8.02;;
41323;SDS011;27073;51.128;4.220;2022-12-07T08:24:32;14.48;;;7.68;;
41323;SDS011;27073;51.128;4.220;2022-12-07T08:27:02;16.65;;;7.53;;
41323;SDS011;27073;51.128;4.220;2022-12-07T08:29:29;12.83;;;7.13;;
41323;SDS011;27073;51.128;4.220;2022-12-07T08:31:56;15.65;;;6.20;;
41323;SDS011;27073;51.128;4.220;2022-12-07T08:34:22;16.98;;;6.53;;
41323;SDS011;27073;51.128;4.220;2022-12-07T08:36:49;14.27;;;6.38;;
41323;SDS011;27073;51.128;4.220;2022-12-07T08:39:16;12.98;;;6.28;;
41323;SDS011;27073;51.128;4.220;2022-12-07T08:41:42;11.27;;;5.72;;
41323;SDS011;27073;51.128;4.220;2022-12-07T08:44:11;13.48;;;5.95;;
41323;SDS011;27073;51.128;4.220;2022-12-07T08:46:54;12.88;;;5.78;;
41323;SDS011;27073;51.128;4.220;2022-12-07T08:49:25;13.63;;;5.82;;
41323;SDS011;27073;51.128;4.220;2022-12-07T08:51:55;15.55;;;5.47;;
41323;SDS011;27073;51.128;4.220;2022-12-07T08:54:21;12.10;;;5.25;;
41323;SDS011;27073;51.128;4.220;2022-12-07T08:56:47;13.52;;;5.88;;
41323;SDS011;27073;51.128;4.220;2022-12-07T08:59:16;14.63;;;8.38;;
41323;SDS011;27073;51.128;4.220;2022-12-07T09:01:43;13.80;;;7.32;;
41323;SDS011;27073;51.128;4.220;2022-12-07T09:04:08;12.93;;;6.35;;
41323;SDS011;27073;51.128;4.220;2022-12-07T09:06:34;12.65;;;5.93;;
41323;SDS011;27073;51.128;4.220;2022-12-07T09:09:00;15.50;;;5.90;;
41323;SDS011;27073;51.128;4.220;2022-12-07T09:11:27;12.45;;;5.95;;
41323;SDS011;27073;51.128;4.220;2022-12-07T09:13:53;10.57;;;6.00;;
41323;SDS011;27073;51.128;4.220;2022-12-07T09:16:18;14.60;;;6.13;;
41323;SDS011;27073;51.128;4.220;2022-12-07T09:18:45;10.85;;;5.47;;
41323;SDS011;27073;51.128;4.220;2022-12-07T09:21:11;14.73;;;6.32;;
41323;SDS011;27073;51.128;4.220;2022-12-07T09:23:37;12.68;;;6.15;;
41323;SDS011;27073;51.128;4.220;2022-12-07T09:26:03;13.82;;;6.72;;
41323;SDS011;27073;51.128;4.220;2022-12-07T09:28:30;9.43;;;6.00;;
41323;SDS011;27073;51.128;4.220;2022-12-07T09:30:56;10.18;;;6.85;;
41323;SDS011;27073;51.128;4.220;2022-12-07T09:33:22;12.57;;;6.57;;
41323;SDS011;27073;51.128;4.220;2022-12-07T09:35:49;13.80;;;6.90;;
41323;SDS011;27073;51.128;4.220;2022-12-07T09:38:17;20.30;;;7.50;;
41323;SDS011;27073;51.128;4.220;2022-12-07T09:40:44;10.45;;;6.22;;
41323;SDS011;27073;51.128;4.220;2022-12-07T09:43:17;13.98;;;6.57;;
41323;SDS011;27073;51.128;4.220;2022-12-07T09:45:46;15.52;;;7.00;;
41323;SDS011;27073;51.128;4.220;2022-12-07T09:48:17;15.52;;;6.25;;
41323;SDS011;27073;51.128;4.220;2022-12-07T09:50:45;10.57;;;6.00;;
41323;SDS011;27073;51.128;4.220;2022-12-07T09:58:24;13.85;;;6.47;;
41323;SDS011;27073;51.128;4.220;2022-12-07T10:00:57;10.68;;;6.43;;
41323;SDS011;27073;51.128;4.220;2022-12-07T10:03:27;11.32;;;6.70;;
41323;SDS011;27073;51.128;4.220;2022-12-07T10:05:56;17.30;;;7.53;;
41323;SDS011;27073;51.128;4.220;2022-12-07T10:08:22;11.38;;;6.00;;
41323;SDS011;27073;51.128;4.220;2022-12-07T10:10:50;18.75;;;6.65;;
41323;SDS011;27073;51.128;4.220;2022-12-07T10:13:20;13.48;;;6.22;;
41323;SDS011;27073;51.128;4.220;2022-12-07T10:15:54;15.55;;;6.72;;
41323;SDS011;27073;51.128;4.220;2022-12-07T10:24:03;14.55;;;6.43;;
41323;SDS011;27073;51.128;4.220;2022-12-07T10:26:47;11.43;;;6.33;;
41323;SDS011;27073;51.128;4.220;2022-12-07T10:39:49;11.63;;;5.38;;
41323;SDS011;27073;51.128;4.220;2022-12-07T10:42:17;11.85;;;5.15;;
41323;SDS011;27073;51.128;4.220;2022-12-07T11:17:53;12.13;;;3.47;;
41323;SDS011;27073;51.128;4.220;2022-12-07T11:41:36;7.65;;;3.03;;
41323;SDS011;27073;51.128;4.220;2022-12-07T12:00:55;10.23;;;3.47;;
41323;SDS011;27073;51.128;4.220;2022-12-07T12:03:52;6.90;;;3.08;;
41323;SDS011;27073;51.128;4.220;2022-12-07T12:06:23;8.40;;;3.03;;
41323;SDS011;27073;51.128;4.220;2022-12-07T12:09:01;9.20;;;3.20;;
41323;SDS011;27073;51.128;4.220;2022-12-07T12:14:43;7.13;;;3.63;;
41323;SDS011;27073;51.128;4.220;2022-12-07T12:17:21;9.65;;;3.78;;
41323;SDS011;27073;51.128;4.220;2022-12-07T12:20:04;10.82;;;3.60;;
41323;SDS011;27073;51.128;4.220;2022-12-07T12:22:55;6.60;;;3.63;;
41323;SDS011;27073;51.128;4.220;2022-12-07T12:25:36;8.48;;;3.30;;
41323;SDS011;27073;51.128;4.220;2022-12-07T12:28:27;7.88;;;3.17;;
41323;SDS011;27073;51.128;4.220;2022-12-07T12:33:43;10.50;;;2.90;;
41323;SDS011;27073;51.128;4.220;2022-12-07T12:38:48;7.40;;;3.35;;
41323;SDS011;27073;51.128;4.220;2022-12-07T12:47:01;8.52;;;3.17;;
41323;SDS011;27073;51.128;4.220;2022-12-07T12:49:39;7.47;;;2.92;;
41323;SDS011;27073;51.128;4.220;2022-12-07T12:54:59;8.75;;;3.60;;
41323;SDS011;27073;51.128;4.220;2022-12-07T12:57:37;9.02;;;2.67;;
41323;SDS011;27073;51.128;4.220;2022-12-07T13:02:53;8.02;;;2.83;;
41323;SDS011;27073;51.128;4.220;2022-12-07T13:05:24;7.57;;;2.50;;
41323;SDS011;27073;51.128;4.220;2022-12-07T13:07:57;9.18;;;2.72;;
41323;SDS011;27073;51.128;4.220;2022-12-07T13:10:47;8.32;;;3.20;;
41323;SDS011;27073;51.128;4.220;2022-12-07T13:15:47;7.03;;;1.65;;
41323;SDS011;27073;51.128;4.220;2022-12-07T13:23:51;4.55;;;1.55;;
41323;SDS011;27073;51.128;4.220;2022-12-07T13:28:52;3.15;;;1.10;;
41323;SDS011;27073;51.128;4.220;2022-12-07T13:31:53;5.18;;;1.13;;
41323;SDS011;27073;51.128;4.220;2022-12-07T13:34:31;6.75;;;2.00;;
41323;SDS011;27073;51.128;4.220;2022-12-07T13:37:00;6.25;;;2.92;;
41323;SDS011;27073;51.128;4.220;2022-12-07T13:39:29;3.30;;;2.00;;
41323;SDS011;27073;51.128;4.220;2022-12-07T13:41:58;5.05;;;1.55;;
41323;SDS011;27073;51.128;4.220;2022-12-07T13:44:28;3.78;;;2.45;;
41323;SDS011;27073;51.128;4.220;2022-12-07T13:47:09;4.40;;;3.17;;
41323;SDS011;27073;51.128;4.220;2022-12-07T13:49:49;5.43;;;1.40;;
41323;SDS011;27073;51.128;4.220;2022-12-07T13:52:21;2.05;;;0.90;;
41323;SDS011;27073;51.128;4.220;2022-12-07T13:54:55;4.57;;;1.42;;
41323;SDS011;27073;51.128;4.220;2022-12-07T13:57:31;4.57;;;1.15;;
41323;SDS011;27073;51.128;4.220;2022-12-07T14:00:00;3.85;;;1.13;;
41323;SDS011;27073;51.128;4.220;2022-12-07T14:02:31;4.32;;;1.48;;
41323;SDS011;27073;51.128;4.220;2022-12-07T14:05:23;3.80;;;1.17;;
41323;SDS011;27073;51.128;4.220;2022-12-07T14:07:55;3.85;;;1.30;;
41323;SDS011;27073;51.128;4.220;2022-12-07T14:10:26;5.15;;;1.33;;
41323;SDS011;27073;51.128;4.220;2022-12-07T14:12:55;5.68;;;1.92;;
41323;SDS011;27073;51.128;4.220;2022-12-07T14:15:32;9.18;;;2.08;;
41323;SDS011;27073;51.128;4.220;2022-12-07T14:17:59;6.45;;;1.88;;
41323;SDS011;27073;51.128;4.220;2022-12-07T14:20:36;3.13;;;1.20;;
41323;SDS011;27073;51.128;4.220;2022-12-07T14:23:03;6.40;;;1.38;;
41323;SDS011;27073;51.128;4.220;2022-12-07T14:25:46;7.47;;;2.15;;
41323;SDS011;27073;51.128;4.220;2022-12-07T14:31:23;6.72;;;1.98;;
41323;SDS011;27073;51.128;4.220;2022-12-07T14:33:51;4.03;;;1.50;;
41323;SDS011;27073;51.128;4.220;2022-12-07T14:36:17;5.05;;;2.00;;
41323;SDS011;27073;51.128;4.220;2022-12-07T14:38:45;7.05;;;2.20;;
41323;SDS011;27073;51.128;4.220;2022-12-07T14:41:16;5.20;;;1.90;;
41323;SDS011;27073;51.128;4.220;2022-12-07T14:44:11;7.20;;;1.58;;
41323;SDS011;27073;51.128;4.220;2022-12-07T14:46:37;9.10;;;2.03;;
41323;SDS011;27073;51.128;4.220;2022-12-07T14:49:03;5.75;;;2.05;;
41323;SDS011;27073;51.128;4.220;2022-12-07T14:51:29;5.43;;;1.60;;
41323;SDS011;27073;51.128;4.220;2022-12-07T14:53:54;6.50;;;1.70;;
41323;SDS011;27073;51.128;4.220;2022-12-07T14:58:53;4.60;;;1.40;;
41323;SDS011;27073;51.128;4.220;2022-12-07T15:01:22;5.88;;;1.35;;
41323;SDS011;27073;51.128;4.220;2022-12-07T15:06:54;6.15;;;1.90;;
41323;SDS011;27073;51.128;4.220;2022-12-07T15:11:56;4.35;;;1.13;;
41323;SDS011;27073;51.128;4.220;2022-12-07T15:16:55;6.88;;;1.50;;
41323;SDS011;27073;51.128;4.220;2022-12-07T15:19:24;7.07;;;1.77;;
41323;SDS011;27073;51.128;4.220;2022-12-07T15:21:55;6.78;;;2.60;;
41323;SDS011;27073;51.128;4.220;2022-12-07T15:24:38;5.55;;;2.30;;
41323;SDS011;27073;51.128;4.220;2022-12-07T15:27:16;5.70;;;2.03;;
41323;SDS011;27073;51.128;4.220;2022-12-07T15:34:52;5.18;;;1.70;;
41323;SDS011;27073;51.128;4.220;2022-12-07T15:37:20;4.65;;;2.10;;
41323;SDS011;27073;51.128;4.220;2022-12-07T15:39:48;5.68;;;2.63;;
41323;SDS011;27073;51.128;4.220;2022-12-07T15:48:23;6.53;;;2.88;;
41323;SDS011;27073;51.128;4.220;2022-12-07T15:51:06;9.60;;;3.67;;
41323;SDS011;27073;51.128;4.220;2022-12-07T15:53:34;7.90;;;2.97;;
41323;SDS011;27073;51.128;4.220;2022-12-07T15:56:13;6.55;;;3.40;;
41323;SDS011;27073;51.128;4.220;2022-12-07T15:58:45;8.38;;;4.07;;
41323;SDS011;27073;51.128;4.220;2022-12-07T16:01:11;9.52;;;3.63;;
41323;SDS011;27073;51.128;4.220;2022-12-07T16:03:40;8.13;;;3.22;;
41323;SDS011;27073;51.128;4.220;2022-12-07T16:06:08;9.52;;;5.03;;
41323;SDS011;27073;51.128;4.220;2022-12-07T16:08:34;8.57;;;3.95;;
41323;SDS011;27073;51.128;4.220;2022-12-07T16:21:10;7.80;;;3.50;;
41323;SDS011;27073;51.128;4.220;2022-12-07T16:32:21;6.00;;;3.55;;
41323;SDS011;27073;51.128;4.220;2022-12-07T16:37:55;8.10;;;3.47;;
41323;SDS011;27073;51.128;4.220;2022-12-07T16:40:24;6.75;;;3.63;;
41323;SDS011;27073;51.128;4.220;2022-12-07T16:45:24;9.70;;;3.67;;
41323;SDS011;27073;51.128;4.220;2022-12-07T16:50:22;7.50;;;3.90;;
41323;SDS011;27073;51.128;4.220;2022-12-07T17:04:00;10.13;;;4.13;;
41323;SDS011;27073;51.128;4.220;2022-12-07T17:06:27;11.43;;;5.18;;
41323;SDS011;27073;51.128;4.220;2022-12-07T17:09:03;10.13;;;4.50;;
41323;SDS011;27073;51.128;4.220;2022-12-07T17:11:42;10.48;;;4.45;;
41323;SDS011;27073;51.128;4.220;2022-12-07T17:14:29;7.93;;;4.72;;
41323;SDS011;27073;51.128;4.220;2022-12-07T17:17:22;12.30;;;6.85;;
41323;SDS011;27073;51.128;4.220;2022-12-07T17:21:03;10.90;;;6.97;;
41323;SDS011;27073;51.128;4.220;2022-12-07T17:23:43;11.15;;;7.15;;
41323;SDS011;27073;51.128;4.220;2022-12-07T17:26:13;11.75;;;7.40;;
41323;SDS011;27073;51.128;4.220;2022-12-07T17:31:15;8.20;;;5.68;;
41323;SDS011;27073;51.128;4.220;2022-12-07T17:33:48;11.95;;;6.50;;
41323;SDS011;27073;51.128;4.220;2022-12-07T17:36:22;11.75;;;6.20;;
41323;SDS011;27073;51.128;4.220;2022-12-07T17:38:53;10.38;;;6.03;;
41323;SDS011;27073;51.128;4.220;2022-12-07T17:41:23;12.27;;;6.90;;
41323;SDS011;27073;51.128;4.220;2022-12-07T17:44:11;10.40;;;7.05;;
41323;SDS011;27073;51.128;4.220;2022-12-07T17:49:08;10.68;;;6.93;;
41323;SDS011;27073;51.128;4.220;2022-12-07T17:51:34;9.50;;;5.88;;
41323;SDS011;27073;51.128;4.220;2022-12-07T17:54:19;10.82;;;7.18;;
41323;SDS011;27073;51.128;4.220;2022-12-07T17:56:48;11.52;;;7.60;;
41323;SDS011;27073;51.128;4.220;2022-12-07T17:59:14;8.73;;;5.72;;
41323;SDS011;27073;51.128;4.220;2022-12-07T18:01:40;9.35;;;5.22;;
41323;SDS011;27073;51.128;4.220;2022-12-07T18:04:06;8.07;;;4.55;;
41323;SDS011;27073;51.128;4.220;2022-12-07T18:12:37;9.40;;;6.18;;
41323;SDS011;27073;51.128;4.220;2022-12-07T18:15:04;10.93;;;7.15;;
41323;SDS011;27073;51.128;4.220;2022-12-07T18:17:31;17.08;;;9.15;;
41323;SDS011;27073;51.128;4.220;2022-12-07T18:19:57;10.93;;;7.72;;
41323;SDS011;27073;51.128;4.220;2022-12-07T18:22:23;19.55;;;9.90;;
41323;SDS011;27073;51.128;4.220;2022-12-07T18:24:49;12.57;;;7.00;;
41323;SDS011;27073;51.128;4.220;2022-12-07T18:27:15;11.82;;;7.20;;
41323;SDS011;27073;51.128;4.220;2022-12-07T18:29:41;9.85;;;7.00;;
41323;SDS011;27073;51.128;4.220;2022-12-07T18:32:06;10.48;;;7.13;;
41323;SDS011;27073;51.128;4.220;2022-12-07T18:34:33;12.43;;;8.13;;
41323;SDS011;27073;51.128;4.220;2022-12-07T18:36:59;8.77;;;7.18;;
41323;SDS011;27073;51.128;4.220;2022-12-07T18:39:25;11.45;;;7.22;;
41323;SDS011;27073;51.128;4.220;2022-12-07T18:41:50;13.80;;;8.35;;
41323;SDS011;27073;51.128;4.220;2022-12-07T18:44:16;10.23;;;7.50;;
41323;SDS011;27073;51.128;4.220;2022-12-07T18:46:42;12.32;;;8.05;;
41323;SDS011;27073;51.128;4.220;2022-12-07T18:49:08;9.80;;;7.03;;
41323;SDS011;27073;51.128;4.220;2022-12-07T18:51:37;9.27;;;6.88;;
41323;SDS011;27073;51.128;4.220;2022-12-07T18:54:03;9.02;;;6.25;;
41323;SDS011;27073;51.128;4.220;2022-12-07T18:56:29;8.85;;;6.28;;
41323;SDS011;27073;51.128;4.220;2022-12-07T18:58:56;13.48;;;8.10;;
41323;SDS011;27073;51.128;4.220;2022-12-07T19:01:43;11.48;;;7.28;;
41323;SDS011;27073;51.128;4.220;2022-12-07T19:04:11;10.85;;;6.75;;
41323;SDS011;27073;51.128;4.220;2022-12-07T19:09:08;10.98;;;7.40;;
41323;SDS011;27073;51.128;4.220;2022-12-07T19:11:40;9.15;;;6.20;;
41323;SDS011;27073;51.128;4.220;2022-12-07T19:16:46;9.70;;;6.55;;
41323;SDS011;27073;51.128;4.220;2022-12-07T19:19:17;10.27;;;6.38;;
41323;SDS011;27073;51.128;4.220;2022-12-07T19:21:44;10.38;;;7.00;;
41323;SDS011;27073;51.128;4.220;2022-12-07T19:24:10;10.00;;;6.80;;
41323;SDS011;27073;51.128;4.220;2022-12-07T19:26:36;8.15;;;7.00;;
41323;SDS011;27073;51.128;4.220;2022-12-07T19:29:02;8.38;;;7.03;;